Flight Track Log - Related Links

Times and Time Zones

All times are in EDT time to prevent confusion due to time zone crossing. See the LOG6847 flight status page for this flight to view local times or setup timezone preferences in your user account.

Time Position Orientation Groundspeed Altitude Reporting Facility
EDT Latitude Longitude Course Direction KTS MPH feet Rate Location/Type
Mon 12:29:35 PM 55.8514 -4.5600 230° Southwest 174 200 3,000  Level FlightAware UK
Mon 12:30:35 PM 55.8375 -4.5944 235° Southwest 130 150 3,600 692 Climbing FlightAware UK
Mon 12:30:53 PM 55.8330 -4.6048 232° Southwest 174 200 3,900 833 Climbing FlightAware UK
Mon 12:31:11 PM 55.8284 -4.6148 231° Southwest 174 200 4,100 778 Climbing FlightAware UK
Mon 12:31:47 PM 55.8201 -4.6367 234° Southwest 174 200 4,600 889 Climbing FlightAware UK
Mon 12:32:05 PM 55.8156 -4.6477 234° Southwest 174 200 4,900 667 Climbing FlightAware UK
Mon 12:32:23 PM 55.8111 -4.6593 235° Southwest 174 200 5,000 667 Climbing FlightAware UK
Mon 12:32:41 PM 55.8065 -4.6723 238° Southwest 174 200 5,300 333 Climbing FlightAware UK
Mon 12:32:59 PM 55.8022 -4.6861 241° Southwest 174 200 5,200 -364 Descending FlightAware UK
Mon 12:33:47 PM 55.7862 -4.7274 236° Southwest 130 150 4,900 -455 Descending FlightAware UK
Mon 12:34:05 PM 55.7798 -4.7425 233° Southwest 174 200 4,700 -833 Descending FlightAware UK
Mon 12:34:23 PM 55.7733 -4.7581 233° Southwest 174 200 4,400 -833 Descending FlightAware UK
Mon 12:34:41 PM 55.7666 -4.7738 233° Southwest 174 200 4,200 -667 Descending FlightAware UK
Mon 12:34:59 PM 55.7598 -4.7894 232° Southwest 174 200 4,000 -857 Descending FlightAware UK
Mon 12:35:23 PM 55.7535 -4.8127 244° Southwest 130 150 3,600 -500 Descending FlightAware UK
Mon 12:35:47 PM 55.7488 -4.8369 251° West 130 150 3,600 -429 Level FlightAware UK
Mon 12:36:05 PM 55.7447 -4.8548 248° West 174 200 3,300 -667 Descending FlightAware UK
Mon 12:36:23 PM 55.7402 -4.8729 246° West 174 200 3,200 -333 Descending FlightAware UK
Mon 12:36:41 PM 55.7337 -4.8895 235° Southwest 174 200 3,100 -333 Descending FlightAware UK
Mon 12:36:59 PM 55.7262 -4.9038 227° Southwest 174 200 3,000 -383 Descending FlightAware UK
Mon 12:37:28 PM 55.7128 -4.9273 225° Southwest 108 124 2,800 -255 Descending FlightAware UK
Mon 12:37:46 PM 55.7047 -4.9413 224° Southwest 174 200 2,800 167 Level FlightAware UK
Mon 12:38:04 PM 55.6972 -4.9559 228° Southwest 174 200 2,900 -167 Climbing FlightAware UK
Mon 12:38:22 PM 55.6892 -4.9694 223° Southwest 174 200 2,700 -167 Descending FlightAware UK
Mon 12:38:40 PM 55.6821 -4.9836 228° Southwest 174 200 2,800 -167 Climbing FlightAware UK
Mon 12:38:58 PM 55.6751 -4.9982 230° Southwest 174 200 2,600 -500 Descending FlightAware UK
Mon 12:39:16 PM 55.6671 -5.0121 224° Southwest 174 200 2,500 -333 Descending FlightAware UK
Mon 12:39:34 PM 55.6600 -5.0276 231° Southwest 174 200 2,400  Descending FlightAware UK
Mon 12:39:59 PM 55.6495 -5.0470 226° Southwest 125 144 2,500  Climbing FlightAware UK
Mon 12:40:17 PM 55.6423 -5.0618 229° Southwest 174 200 2,400  Descending FlightAware UK
Mon 12:40:40 PM 55.6340 -5.0827 235° Southwest 136 157 2,500 293 Climbing FlightAware UK
Mon 12:40:58 PM 55.6274 -5.0978 232° Southwest 174 200 2,600 333 Climbing FlightAware UK
Mon 12:41:16 PM 55.6211 -5.1141 236° Southwest 174 200 2,700 429 Climbing FlightAware UK
Mon 12:41:40 PM 55.6080 -5.1254 206° Southwest 130 150 2,900 286 Climbing FlightAware UK
Mon 12:41:58 PM 55.6004 -5.1374 222° Southwest 174 200 2,900 143 Level FlightAware UK
Mon 12:42:22 PM 55.5901 -5.1533 221° Southwest 130 150 3,000 143 Climbing FlightAware UK
Mon 12:42:40 PM 55.5822 -5.1652 220° Southwest 174 200 3,000 -333 Level FlightAware UK
Mon 12:42:58 PM 55.5704 -5.1706 194° South 174 200 2,800 -167 Descending FlightAware UK
Mon 12:43:16 PM 55.5606 -5.1784 204° Southwest 174 200 2,900 -167 Climbing FlightAware UK
Mon 12:43:34 PM 55.5502 -5.1856 201° Southwest 174 200 2,700 -167 Descending FlightAware UK
Mon 12:43:52 PM 55.5409 -5.1943 208° Southwest 174 200 2,800 -143 Climbing FlightAware UK
Mon 12:44:16 PM 55.5326 -5.2126 231° Southwest 130 150 2,600 -143 Descending FlightAware UK
Mon 12:44:34 PM 55.5282 -5.2285 244° Southwest 174 200 2,700 -167 Climbing FlightAware UK
Mon 12:44:52 PM 55.5240 -5.2452 246° West 174 200 2,500 -333 Descending FlightAware UK
Mon 12:45:10 PM 55.5168 -5.2541 215° Southwest 174 200 2,500  Level FlightAware UK
Mon 12:47:00 PM 55.5036 -5.3267 252° West  Level Estimated
Mon 12:54:00 PM 55.4527 -5.6033 252° West  Level Estimated
Mon 12:55:00 PM 55.4453 -5.6427 252° West  Level Estimated
Mon 12:56:00 PM 55.4380 -5.6822 252° West  Level Estimated
Mon 12:57:00 PM 55.4372 -5.6864 252° West  Level Estimated
Mon 12:58:00 PM 55.4372 -5.6864 North  Level Estimated
Mon 12:59:00 PM 55.4372 -5.6864 North  Level Estimated
Mon 01:00:00 PM 55.4372 -5.6864 North  Level Estimated
Mon 01:01:00 PM 55.4372 -5.6864 North  Level Estimated
Mon 01:02:00 PM 55.4372 -5.6864 North  Level Estimated
Mon 01:03:00 PM 55.4372 -5.6864 North  Level Estimated
Mon 01:04:00 PM 55.4372 -5.6864 North  Level Estimated
Mon 01:05:00 PM 55.4372 -5.6864 North  Level Estimated
Mon 01:06:00 PM 55.4372 -5.6864 North  Level Estimated
Mon 01:07:00 PM 55.4372 -5.6864 North  Level Estimated
Mon 01:08:00 PM 55.4372 -5.6864 North  Level Estimated
Mon 01:09:00 PM 55.4372 -5.6864 North  Level Estimated
Mon 01:10:00 PM 55.4372 -5.6864 North  Level Estimated
Mon 01:11:00 PM 55.4372 -5.6864 North  Level Estimated
Mon 01:12:00 PM 55.4372 -5.6864 North  Level Estimated
Mon 01:13:00 PM 55.4372 -5.6864 North  Level Estimated
Mon 01:14:00 PM 55.4372 -5.6864 North  Level Estimated
Mon 01:15:00 PM 55.4372 -5.6864 North  Level Estimated
Mon 01:16:00 PM 55.4372 -5.6864 North  Level Estimated

Login

Don't have an account? Register now (free) for customized features, flight alerts, and more!